Terminal Aerodrome Forecast
Issued by NWS

Home | Current Version | Previous Version | Text Only | Print | Product List | Glossary On
Versions: 1 2 3 4 5 6 7 8 9 10 11 12 13 14 15
000
FTUS43 KPAH 201700
TAFCGI
TAF
KCGI 201720Z 2018/2118 22007KT P6SM SCT060
     FM202300 00000KT P6SM SKC
     FM210600 00000KT 3SM BR SKC
      TEMPO 2108/2112 1SM BR
     FM211400 22008KT P6SM SCT030=

USA.gov is the U.S. government's official web portal to all federal, state and local government web resources and services.